Airport View

Enter AWOS ICAO identifier for current METAR.

ex. KFNL

KLHM 310335Z AUTO 07006KT 10SM CLR 16/13 A2991 RMK AO1

31 May 2020 03:51

Frequency: 124.25

Phone: 916-645-0698

Other Area AWOS: KAUN - KBAB - KMCC - KMYV

TAF AMD KBAB 300345Z 3003/3101 17012G18KT 9999 SCT140 QNH2967INS BECMG 3005/3006 14010G15KT 9999 SCT015 BKN140 QNH2970INS BECMG 3007/3008 16010G15KT 8000 -RA OVC015 QNH2985INS TEMPO 3010/3015 BKN008 OVC015 BECMG 3016/3017 19009KT 8000 -SHRA VCTS BKN008CB OVC015 QNH2993INS TEMPO 3018/3024 18015G25KT 4800 -TSRAGR TX23/3003Z TN14/3013Z LAST NO AMDS AFT 3003 NEXT 0114